Time;durP1;ratioP1;P1;durP2;ratioP2;P2;SDS_P1;SDS_P2;PMS_P1;PMS_P2;Temp;Humidity;BMP_temperature;BMP_pressure;BME280_temperature;BME280_humidity;BME280_pressure;Samples;Min_cycle;Max_cycle;Signal;HPM_P1;HPM_P2
2022/08/21 00:00:32;;;;;;;3.75;1.80;;;;;;;;;;2080738;28;20076;-89
2022/08/21 00:01:33;;;;;;;7.13;2.50;;;;;;;;;;2081073;28;20680;-88
2022/08/21 00:02:33;;;;;;;4.28;2.33;;;;;;;;;;2080708;28;20067;-89
2022/08/21 00:03:34;;;;;;;6.85;2.35;;;;;;;;;;2080661;28;20068;-90
2022/08/21 00:04:34;;;;;;;7.18;2.72;;;;;;;;;;2080773;28;20021;-88
2022/08/21 00:05:41;;;;;;;5.15;2.45;;;;;;;;;;2081041;28;20032;-89
2022/08/21 00:06:41;;;;;;;6.07;2.63;;;;;;;;;;2080896;28;20021;-88
2022/08/21 00:07:42;;;;;;;5.00;2.42;;;;;;;;;;2080164;28;20013;-88
2022/08/21 00:08:43;;;;;;;6.00;2.53;;;;;;;;;;2071842;28;20084;-88
2022/08/21 00:09:43;;;;;;;4.40;2.25;;;;;;;;;;2079876;28;20451;-88
2022/08/21 00:10:45;;;;;;;4.80;2.35;;;;;;;;;;2079894;28;20025;-89
2022/08/21 00:11:46;;;;;;;5.90;2.28;;;;;;;;;;2079982;28;20028;-89
2022/08/21 00:12:49;;;;;;;6.50;2.85;;;;;;;;;;2080138;28;20155;-88
2022/08/21 00:13:49;;;;;;;6.10;2.55;;;;;;;;;;2072136;28;20051;-88
2022/08/21 00:14:51;;;;;;;3.42;2.35;;;;;;;;;;2080137;28;20025;-89
2022/08/21 00:15:51;;;;;;;4.90;2.42;;;;;;;;;;2080766;28;20022;-88
2022/08/21 00:16:52;;;;;;;5.05;2.00;;;;;;;;;;1724577;28;10248362;-88
2022/08/21 00:17:53;;;;;;;3.17;1.80;;;;;;;;;;2079967;28;20021;-89
2022/08/21 00:18:54;;;;;;;8.88;2.40;;;;;;;;;;2080163;28;20435;-88
2022/08/21 00:19:54;;;;;;;4.75;1.92;;;;;;;;;;2080716;28;20021;-88
2022/08/21 00:20:55;;;;;;;5.68;2.35;;;;;;;;;;2080061;28;20036;-88
2022/08/21 00:21:56;;;;;;;6.25;2.00;;;;;;;;;;2079877;28;20080;-88
2022/08/21 00:22:56;;;;;;;6.32;2.30;;;;;;;;;;2080558;28;20495;-88
2022/08/21 00:23:56;;;;;;;3.50;2.25;;;;;;;;;;2079693;28;20132;-88
2022/08/21 00:24:57;;;;;;;4.30;2.22;;;;;;;;;;2071780;28;20117;-88
2022/08/21 00:25:58;;;;;;;5.93;2.22;;;;;;;;;;2071676;28;20033;-88
2022/08/21 00:26:59;;;;;;;5.03;2.22;;;;;;;;;;2079937;28;20025;-89
2022/08/21 00:28:01;;;;;;;4.05;2.30;;;;;;;;;;2080732;28;20029;-87
2022/08/21 00:29:01;;;;;;;5.32;2.88;;;;;;;;;;2079945;28;20029;-89
2022/08/21 00:30:05;;;;;;;5.80;2.38;;;;;;;;;;2080528;28;20060;-88
2022/08/21 00:31:05;;;;;;;4.85;2.40;;;;;;;;;;2080472;28;20025;-89
2022/08/21 00:32:06;;;;;;;7.95;2.70;;;;;;;;;;2080721;28;20033;-89
2022/08/21 00:33:10;;;;;;;6.38;2.58;;;;;;;;;;2082753;28;20025;-89
2022/08/21 00:34:11;;;;;;;4.82;2.22;;;;;;;;;;2080267;28;20040;-88
2022/08/21 00:35:17;;;;;;;5.47;2.45;;;;;;;;;;2080921;28;20033;-88
2022/08/21 00:36:18;;;;;;;7.13;2.85;;;;;;;;;;1724600;28;10253938;-88
2022/08/21 00:37:19;;;;;;;4.80;2.30;;;;;;;;;;2079807;28;20018;-89
2022/08/21 00:38:19;;;;;;;5.53;2.80;;;;;;;;;;1734010;28;10002332;-88
2022/08/21 00:39:21;;;;;;;5.32;2.90;;;;;;;;;;2079935;28;20389;-87
2022/08/21 00:40:46;;;;;;;4.97;2.90;;;;;;;;;;2077547;28;20088;-88
2022/08/21 00:41:46;;;;;;;4.07;2.53;;;;;;;;;;2079391;28;20236;-88
2022/08/21 00:42:46;;;;;;;4.05;2.58;;;;;;;;;;2080034;28;20519;-89
2022/08/21 00:43:47;;;;;;;4.10;2.10;;;;;;;;;;2080145;28;20083;-89
2022/08/21 00:44:49;;;;;;;4.93;2.63;;;;;;;;;;2080162;28;20515;-89
2022/08/21 00:45:50;;;;;;;5.93;2.20;;;;;;;;;;2080595;28;20027;-88
2022/08/21 00:46:51;;;;;;;6.07;2.90;;;;;;;;;;2080748;28;20029;-88
2022/08/21 00:47:54;;;;;;;3.63;2.13;;;;;;;;;;2080604;28;20504;-88
2022/08/21 00:48:56;;;;;;;5.60;2.65;;;;;;;;;;2079636;28;20017;-88
2022/08/21 00:49:56;;;;;;;7.15;2.45;;;;;;;;;;2079601;28;20030;-88
2022/08/21 00:51:02;;;;;;;5.20;2.13;;;;;;;;;;2079697;28;20018;-88
2022/08/21 00:52:05;;;;;;;5.72;2.42;;;;;;;;;;2072143;28;20049;-88
2022/08/21 00:53:07;;;;;;;5.53;2.50;;;;;;;;;;2079648;28;20107;-88
2022/08/21 00:54:10;;;;;;;4.60;2.13;;;;;;;;;;2071966;28;20021;-88
2022/08/21 00:55:11;;;;;;;6.25;2.42;;;;;;;;;;2079980;28;20033;-88
2022/08/21 00:56:13;;;;;;;3.97;2.08;;;;;;;;;;2079647;28;20029;-88
2022/08/21 00:57:18;;;;;;;9.13;2.50;;;;;;;;;;2079689;28;20472;-88
2022/08/21 00:58:20;;;;;;;3.60;2.40;;;;;;;;;;2079952;28;20021;-88
2022/08/21 00:59:21;;;;;;;5.80;2.53;;;;;;;;;;2079780;28;20479;-89
2022/08/21 01:00:31;;;;;;;6.70;2.42;;;;;;;;;;2079942;28;20032;-89
2022/08/21 01:01:32;;;;;;;4.55;2.35;;;;;;;;;;2080395;28;20053;-88
2022/08/21 01:02:33;;;;;;;5.90;2.92;;;;;;;;;;2080711;28;20041;-88
2022/08/21 01:03:34;;;;;;;4.20;1.90;;;;;;;;;;2079620;28;20105;-88
2022/08/21 01:04:34;;;;;;;3.60;2.40;;;;;;;;;;2079609;28;20112;-88
2022/08/21 01:05:36;;;;;;;9.25;2.88;;;;;;;;;;2079605;28;20072;-88
2022/08/21 01:06:36;;;;;;;4.70;2.38;;;;;;;;;;2079616;28;20021;-88
2022/08/21 01:07:37;;;;;;;6.65;2.75;;;;;;;;;;2071396;28;20116;-88
2022/08/21 01:08:38;;;;;;;4.55;3.55;;;;;;;;;;2071643;28;20121;-88
2022/08/21 01:09:40;;;;;;;2.80;2.10;;;;;;;;;;2079719;28;20029;-88
2022/08/21 01:10:42;;;;;;;7.68;2.78;;;;;;;;;;2080356;28;20032;-88
2022/08/21 01:11:43;;;;;;;4.70;2.08;;;;;;;;;;2079513;28;20028;-88
2022/08/21 01:12:44;;;;;;;5.68;2.28;;;;;;;;;;2079689;28;20032;-88
2022/08/21 01:13:45;;;;;;;4.72;2.45;;;;;;;;;;2079555;28;20488;-87
2022/08/21 01:14:46;;;;;;;4.15;2.70;;;;;;;;;;2071491;28;20488;-88
2022/08/21 01:15:49;;;;;;;3.47;2.22;;;;;;;;;;2079859;28;20022;-87
2022/08/21 01:16:52;;;;;;;4.38;2.28;;;;;;;;;;2079747;28;20319;-89
2022/08/21 01:17:53;;;;;;;7.35;3.22;;;;;;;;;;2087960;28;20027;-89
2022/08/21 01:18:54;;;;;;;6.35;2.42;;;;;;;;;;2096285;28;20414;-89
2022/08/21 01:19:59;;;;;;;5.28;2.55;;;;;;;;;;2079535;28;20048;-89
2022/08/21 01:21:09;;;;;;;8.20;2.58;;;;;;;;;;2079740;28;20033;-89
2022/08/21 01:22:10;;;;;;;4.40;2.40;;;;;;;;;;2080188;28;20462;-89
2022/08/21 01:23:10;;;;;;;5.22;2.90;;;;;;;;;;2080149;28;20057;-89
2022/08/21 01:24:11;;;;;;;4.15;2.50;;;;;;;;;;2080346;28;20495;-89
2022/08/21 01:25:15;;;;;;;6.50;3.28;;;;;;;;;;2079883;28;20477;-89
2022/08/21 01:26:18;;;;;;;5.35;3.15;;;;;;;;;;2071648;28;20022;-89
2022/08/21 01:27:18;;;;;;;6.40;2.78;;;;;;;;;;2079623;28;20025;-90
2022/08/21 01:28:20;;;;;;;6.10;2.58;;;;;;;;;;2079654;28;20525;-89
2022/08/21 01:29:42;;;;;;;7.72;3.03;;;;;;;;;;2079713;28;20071;-89
2022/08/21 01:30:44;;;;;;;5.10;2.92;;;;;;;;;;2074121;28;20021;-89
2022/08/21 01:31:44;;;;;;;5.97;2.78;;;;;;;;;;1717634;28;10245113;-89
2022/08/21 01:32:46;;;;;;;6.80;3.00;;;;;;;;;;2071316;28;20037;-89
2022/08/21 01:33:46;;;;;;;5.00;3.10;;;;;;;;;;2079584;28;20032;-89
2022/08/21 01:34:49;;;;;;;4.57;3.00;;;;;;;;;;2079518;28;20048;-89
2022/08/21 01:35:50;;;;;;;5.80;3.60;;;;;;;;;;2071673;28;20087;-89
2022/08/21 01:36:50;;;;;;;5.55;3.15;;;;;;;;;;2079688;28;20550;-89
2022/08/21 01:37:51;;;;;;;5.07;2.88;;;;;;;;;;2079759;28;20022;-89
2022/08/21 01:38:51;;;;;;;4.20;2.75;;;;;;;;;;2079766;28;20064;-89
2022/08/21 01:39:52;;;;;;;8.40;2.75;;;;;;;;;;2080234;28;20022;-89
2022/08/21 01:40:53;;;;;;;5.65;3.25;;;;;;;;;;2081451;28;20026;-89
2022/08/21 01:41:53;;;;;;;8.73;3.40;;;;;;;;;;2089571;28;20094;-89
2022/08/21 01:42:54;;;;;;;5.15;2.90;;;;;;;;;;2097941;28;20526;-89
2022/08/21 01:43:54;;;;;;;5.95;2.92;;;;;;;;;;2081321;28;20051;-89
2022/08/21 01:44:55;;;;;;;7.97;3.72;;;;;;;;;;2081436;28;20256;-89
2022/08/21 01:45:55;;;;;;;5.60;2.85;;;;;;;;;;1727735;28;10002589;-89
2022/08/21 01:47:00;;;;;;;5.22;3.05;;;;;;;;;;2081241;28;20473;-89
2022/08/21 01:48:00;;;;;;;6.07;3.05;;;;;;;;;;2079724;28;20579;-89
2022/08/21 01:49:01;;;;;;;7.00;3.70;;;;;;;;;;1740841;28;10000589;-89
2022/08/21 01:50:04;;;;;;;3.92;3.05;;;;;;;;;;2089578;28;20600;-89
2022/08/21 01:51:05;;;;;;;7.28;3.60;;;;;;;;;;2073375;28;20113;-89
2022/08/21 01:52:06;;;;;;;6.85;3.58;;;;;;;;;;2081353;28;20025;-89
2022/08/21 01:53:07;;;;;;;5.07;3.25;;;;;;;;;;2073038;28;20033;-89
2022/08/21 01:54:08;;;;;;;4.55;3.00;;;;;;;;;;2081312;28;20743;-89
2022/08/21 01:55:11;;;;;;;7.47;3.00;;;;;;;;;;2081251;28;20192;-89
2022/08/21 01:56:15;;;;;;;6.25;3.38;;;;;;;;;;2081259;28;20064;-89
2022/08/21 01:57:16;;;;;;;5.13;3.00;;;;;;;;;;2081167;28;20033;-89
2022/08/21 01:58:16;;;;;;;7.25;3.58;;;;;;;;;;2081425;28;20108;-89
2022/08/21 01:59:17;;;;;;;9.02;3.78;;;;;;;;;;2081863;28;20127;-89
2022/08/21 02:00:22;;;;;;;5.60;2.97;;;;;;;;;;2081276;28;20029;-89
2022/08/21 02:01:23;;;;;;;7.13;3.75;;;;;;;;;;2073725;28;20022;-89
2022/08/21 02:02:23;;;;;;;7.00;3.00;;;;;;;;;;2081099;28;20021;-89
2022/08/21 02:03:23;;;;;;;5.75;2.85;;;;;;;;;;2081888;28;20039;-89
2022/08/21 02:04:24;;;;;;;8.20;3.30;;;;;;;;;;2081083;28;20087;-89
2022/08/21 02:05:25;;;;;;;5.72;3.47;;;;;;;;;;2081292;28;20555;-89
2022/08/21 02:06:26;;;;;;;5.65;2.83;;;;;;;;;;2081825;28;20040;-89
2022/08/21 02:07:26;;;;;;;4.40;2.60;;;;;;;;;;2081393;28;20025;-89
2022/08/21 02:08:28;;;;;;;6.50;2.80;;;;;;;;;;2081118;28;20028;-89
2022/08/21 02:09:29;;;;;;;5.35;2.55;;;;;;;;;;2081678;28;20021;-89
2022/08/21 02:10:31;;;;;;;5.90;2.97;;;;;;;;;;2080922;28;20035;-89
2022/08/21 02:11:34;;;;;;;5.95;3.10;;;;;;;;;;2080983;28;20176;-89
2022/08/21 02:12:35;;;;;;;5.20;3.30;;;;;;;;;;2081605;28;20348;-89
2022/08/21 02:13:35;;;;;;;5.95;3.38;;;;;;;;;;2081131;28;20492;-88
2022/08/21 02:14:36;;;;;;;6.97;3.35;;;;;;;;;;2081081;28;20030;-89
2022/08/21 02:15:36;;;;;;;7.60;3.33;;;;;;;;;;2081729;28;20468;-89
2022/08/21 02:16:38;;;;;;;5.88;3.28;;;;;;;;;;2081746;28;20021;-89
2022/08/21 02:17:40;;;;;;;8.05;3.22;;;;;;;;;;2081129;28;20021;-90
2022/08/21 02:18:41;;;;;;;8.05;3.45;;;;;;;;;;2080960;28;20562;-89
2022/08/21 02:19:41;;;;;;;6.57;3.00;;;;;;;;;;2081285;28;20079;-90
2022/08/21 02:20:46;;;;;;;6.75;2.88;;;;;;;;;;2080949;28;20028;-89
2022/08/21 02:21:46;;;;;;;5.53;3.10;;;;;;;;;;2081164;28;20119;-90
2022/08/21 02:22:47;;;;;;;6.30;2.60;;;;;;;;;;2081165;28;20029;-90
2022/08/21 02:23:47;;;;;;;5.00;2.95;;;;;;;;;;2081040;28;20053;-90
2022/08/21 02:24:47;;;;;;;6.43;2.80;;;;;;;;;;2082021;28;20029;-91
2022/08/21 02:25:48;;;;;;;5.20;2.88;;;;;;;;;;2081308;28;20022;-89
2022/08/21 02:26:48;;;;;;;10.48;3.30;;;;;;;;;;2080976;28;20036;-90
2022/08/21 02:27:49;;;;;;;6.07;2.75;;;;;;;;;;2081053;28;20413;-88
2022/08/21 02:28:50;;;;;;;5.43;3.10;;;;;;;;;;1728353;28;10161564;-87
2022/08/21 02:29:50;;;;;;;5.30;2.80;;;;;;;;;;2081109;28;20025;-88
2022/08/21 02:30:51;;;;;;;8.57;3.40;;;;;;;;;;2081080;28;20576;-89
2022/08/21 02:31:52;;;;;;;3.45;2.95;;;;;;;;;;2081212;28;20336;-89
2022/08/21 02:32:53;;;;;;;6.90;3.90;;;;;;;;;;1724949;28;10274921;-89
2022/08/21 02:33:53;;;;;;;6.82;3.13;;;;;;;;;;2080875;28;20018;-89
2022/08/21 02:34:54;;;;;;;8.43;3.47;;;;;;;;;;2072725;28;20025;-89
2022/08/21 02:35:56;;;;;;;6.45;3.42;;;;;;;;;;2072515;28;20022;-89
2022/08/21 02:36:56;;;;;;;3.88;3.28;;;;;;;;;;2072770;28;20029;-88
2022/08/21 02:38:04;;;;;;;6.45;3.85;;;;;;;;;;2072529;28;20441;-89
2022/08/21 02:39:05;;;;;;;7.60;3.88;;;;;;;;;;2080694;28;20026;-88
2022/08/21 02:40:06;;;;;;;8.18;3.80;;;;;;;;;;2080912;28;20029;-88
2022/08/21 02:41:09;;;;;;;8.07;3.97;;;;;;;;;;2081400;28;20025;-88
2022/08/21 02:42:10;;;;;;;6.40;4.05;;;;;;;;;;2080905;28;20048;-88
2022/08/21 02:43:11;;;;;;;5.47;4.18;;;;;;;;;;2080861;28;20032;-88
2022/08/21 02:44:12;;;;;;;10.50;3.92;;;;;;;;;;2088983;28;20155;-88
2022/08/21 02:45:14;;;;;;;5.70;3.72;;;;;;;;;;2089006;28;20033;-88
2022/08/21 02:46:17;;;;;;;9.35;4.20;;;;;;;;;;2080759;28;20029;-88
2022/08/21 02:47:17;;;;;;;5.22;3.50;;;;;;;;;;2080882;28;20036;-89
2022/08/21 02:48:21;;;;;;;6.85;3.60;;;;;;;;;;2080886;28;20486;-88
2022/08/21 02:49:22;;;;;;;5.47;3.38;;;;;;;;;;2080869;28;20082;-89
2022/08/21 02:50:29;;;;;;;7.07;4.32;;;;;;;;;;2072475;28;20033;-89
2022/08/21 02:51:30;;;;;;;5.97;4.03;;;;;;;;;;2072768;28;20030;-89
2022/08/21 02:52:33;;;;;;;4.25;3.47;;;;;;;;;;2072841;28;20128;-88
2022/08/21 02:53:35;;;;;;;6.58;3.48;;;;;;;;;;1725584;28;10240174;-88
2022/08/21 02:54:35;;;;;;;7.45;4.05;;;;;;;;;;2081477;28;20113;-88
2022/08/21 02:55:37;;;;;;;7.53;3.67;;;;;;;;;;2080797;28;20028;-88
2022/08/21 02:56:37;;;;;;;10.68;4.40;;;;;;;;;;1721323;28;10349715;-88
2022/08/21 02:57:38;;;;;;;6.22;3.10;;;;;;;;;;2080900;28;20056;-88
2022/08/21 02:58:45;;;;;;;5.88;3.40;;;;;;;;;;2080471;28;20047;-88
2022/08/21 02:59:48;;;;;;;5.63;3.78;;;;;;;;;;2089746;28;20063;-89
2022/08/21 03:00:49;;;;;;;10.35;4.35;;;;;;;;;;2090580;28;20029;-95
2022/08/21 03:01:51;;;;;;;6.20;3.20;;;;;;;;;;2084092;28;20084;-93
2022/08/21 03:02:53;;;;;;;6.00;4.18;;;;;;;;;;2089138;28;20018;-95
2022/08/21 03:03:53;;;;;;;8.00;3.97;;;;;;;;;;2074143;28;20038;-96
2022/08/21 03:04:54;;;;;;;8.13;4.20;;;;;;;;;;2075315;28;20608;-95
2022/08/21 03:05:54;;;;;;;5.03;3.63;;;;;;;;;;2083086;28;20116;-95
2022/08/21 03:06:55;;;;;;;7.75;3.90;;;;;;;;;;2082520;28;20021;-95
2022/08/21 03:08:00;;;;;;;7.10;3.72;;;;;;;;;;2074825;28;20035;-95
2022/08/21 03:09:00;;;;;;;8.00;4.25;;;;;;;;;;2081046;28;20645;-88
2022/08/21 03:10:01;;;;;;;6.82;3.58;;;;;;;;;;2081039;28;20025;-88
2022/08/21 03:11:02;;;;;;;6.50;3.58;;;;;;;;;;2081092;28;20052;-89
2022/08/21 03:12:03;;;;;;;8.10;4.28;;;;;;;;;;2080357;28;20039;-89
2022/08/21 03:13:03;;;;;;;6.00;4.10;;;;;;;;;;2072145;28;20123;-88
2022/08/21 03:14:04;;;;;;;9.07;3.83;;;;;;;;;;2080419;28;20087;-89
2022/08/21 03:15:08;;;;;;;8.73;3.88;;;;;;;;;;1722938;28;10296808;-89
2022/08/21 03:16:08;;;;;;;7.10;3.80;;;;;;;;;;2080258;28;20139;-89
2022/08/21 03:17:09;;;;;;;9.45;3.92;;;;;;;;;;2080348;28;20120;-88
2022/08/21 03:18:10;;;;;;;8.54;3.48;;;;;;;;;;1731956;28;10000808;-89
2022/08/21 03:19:11;;;;;;;6.75;4.18;;;;;;;;;;2072779;28;20051;-89
2022/08/21 03:20:13;;;;;;;7.68;3.80;;;;;;;;;;2080853;28;20029;-87
2022/08/21 03:21:14;;;;;;;4.13;3.10;;;;;;;;;;2081184;28;20040;-89
2022/08/21 03:22:14;;;;;;;4.63;3.20;;;;;;;;;;2080571;28;20034;-89
2022/08/21 03:23:17;;;;;;;5.53;3.45;;;;;;;;;;2080421;28;20488;-88
2022/08/21 03:24:17;;;;;;;5.47;3.38;;;;;;;;;;2079628;28;20041;-89
2022/08/21 03:25:18;;;;;;;4.20;3.17;;;;;;;;;;2079887;28;20533;-89
2022/08/21 03:26:18;;;;;;;6.40;4.47;;;;;;;;;;2080935;28;20427;-89
2022/08/21 03:27:19;;;;;;;5.55;3.70;;;;;;;;;;1724986;28;10247533;-89
2022/08/21 03:28:21;;;;;;;5.50;3.15;;;;;;;;;;2080582;28;20021;-89
2022/08/21 03:29:21;;;;;;;6.57;3.92;;;;;;;;;;2080303;28;20025;-88
2022/08/21 03:30:22;;;;;;;4.97;3.42;;;;;;;;;;2080431;28;20403;-89
2022/08/21 03:31:22;;;;;;;7.55;3.92;;;;;;;;;;2080471;28;20108;-89
2022/08/21 03:32:23;;;;;;;7.70;3.63;;;;;;;;;;2080327;28;20400;-88
2022/08/21 03:33:23;;;;;;;4.97;2.88;;;;;;;;;;2081117;28;20040;-88
2022/08/21 03:34:24;;;;;;;7.20;3.60;;;;;;;;;;2081135;28;20109;-88
2022/08/21 03:35:26;;;;;;;4.04;2.59;;;;;;;;;;1724800;28;10270530;-88
2022/08/21 03:36:26;;;;;;;6.55;3.53;;;;;;;;;;2082181;28;20021;-88
2022/08/21 03:37:27;;;;;;;9.43;3.60;;;;;;;;;;2081302;28;20025;-88
2022/08/21 03:38:30;;;;;;;5.40;3.72;;;;;;;;;;2080516;28;20507;-88
2022/08/21 03:39:30;;;;;;;6.38;3.35;;;;;;;;;;2080812;28;20084;-88
2022/08/21 03:40:31;;;;;;;6.55;4.15;;;;;;;;;;2082321;28;20548;-89
2022/08/21 03:41:31;;;;;;;6.53;3.50;;;;;;;;;;2081324;28;20018;-88
2022/08/21 03:42:32;;;;;;;4.90;2.88;;;;;;;;;;2080789;28;20049;-88
2022/08/21 03:43:32;;;;;;;8.70;3.38;;;;;;;;;;2080312;28;20017;-88
2022/08/21 03:44:34;;;;;;;5.93;3.60;;;;;;;;;;2080277;28;20099;-88
2022/08/21 03:45:35;;;;;;;5.03;3.08;;;;;;;;;;2072294;28;20022;-89
2022/08/21 03:46:35;;;;;;;4.40;3.22;;;;;;;;;;2080480;28;20053;-89
2022/08/21 03:47:36;;;;;;;6.40;3.33;;;;;;;;;;2080998;28;20093;-89
2022/08/21 03:48:37;;;;;;;5.15;3.40;;;;;;;;;;2080122;28;20013;-89
2022/08/21 03:49:37;;;;;;;4.45;3.35;;;;;;;;;;2072156;28;20014;-89
2022/08/21 03:50:41;;;;;;;5.35;3.67;;;;;;;;;;2080201;28;20017;-89
2022/08/21 03:51:42;;;;;;;7.93;3.38;;;;;;;;;;2080320;28;20123;-89
2022/08/21 03:52:43;;;;;;;5.85;3.83;;;;;;;;;;2080283;28;20017;-89
2022/08/21 03:53:44;;;;;;;7.10;3.70;;;;;;;;;;2072000;28;20013;-88
2022/08/21 03:54:45;;;;;;;5.13;3.22;;;;;;;;;;2080314;28;20017;-90
2022/08/21 03:55:47;;;;;;;8.82;3.25;;;;;;;;;;2080778;28;20053;-88
2022/08/21 03:56:47;;;;;;;5.38;3.28;;;;;;;;;;2080237;28;20044;-89
2022/08/21 03:57:48;;;;;;;5.72;2.88;;;;;;;;;;2080271;28;20028;-89
2022/08/21 03:58:48;;;;;;;7.35;3.85;;;;;;;;;;2080173;28;20013;-88
2022/08/21 03:59:49;;;;;;;7.85;3.97;;;;;;;;;;2080275;28;20442;-89
2022/08/21 04:00:51;;;;;;;8.68;4.00;;;;;;;;;;2080146;28;20055;-89
2022/08/21 04:01:58;;;;;;;5.60;3.53;;;;;;;;;;2088465;28;20024;-89
2022/08/21 04:02:58;;;;;;;6.95;3.83;;;;;;;;;;2094837;28;20035;-88
2022/08/21 04:03:59;;;;;;;10.40;4.15;;;;;;;;;;2079461;28;20022;-89
2022/08/21 04:04:59;;;;;;;6.40;3.50;;;;;;;;;;2080175;28;20033;-89
2022/08/21 04:06:00;;;;;;;7.22;3.83;;;;;;;;;;2080182;28;20204;-89
2022/08/21 04:07:01;;;;;;;5.95;3.80;;;;;;;;;;2071773;28;20026;-89
2022/08/21 04:08:03;;;;;;;7.40;3.90;;;;;;;;;;2071890;28;20030;-89
2022/08/21 04:09:04;;;;;;;7.15;3.85;;;;;;;;;;2080039;28;20025;-89
2022/08/21 04:10:06;;;;;;;5.95;3.65;;;;;;;;;;2079974;28;20026;-89
2022/08/21 04:11:07;;;;;;;6.30;3.70;;;;;;;;;;2079941;28;20124;-89
2022/08/21 04:12:08;;;;;;;7.45;3.80;;;;;;;;;;2079947;28;20530;-89
2022/08/21 04:13:08;;;;;;;7.30;3.78;;;;;;;;;;2080122;28;20021;-89
2022/08/21 04:14:09;;;;;;;10.65;4.30;;;;;;;;;;2080037;28;20025;-89
2022/08/21 04:15:09;;;;;;;6.85;4.72;;;;;;;;;;2080106;28;20032;-89
2022/08/21 04:16:10;;;;;;;6.65;4.28;;;;;;;;;;2080047;28;20041;-89
2022/08/21 04:17:11;;;;;;;10.43;3.83;;;;;;;;;;2080107;28;20494;-89
2022/08/21 04:18:11;;;;;;;8.23;4.32;;;;;;;;;;2080924;28;20030;-89
2022/08/21 04:19:15;;;;;;;6.13;4.15;;;;;;;;;;2079984;28;20439;-89
2022/08/21 04:20:17;;;;;;;8.63;4.18;;;;;;;;;;2079891;28;20021;-88
2022/08/21 04:21:18;;;;;;;8.15;4.68;;;;;;;;;;2079837;28;20550;-89
2022/08/21 04:22:18;;;;;;;10.57;5.03;;;;;;;;;;2079909;28;20078;-89
2022/08/21 04:23:19;;;;;;;8.85;4.93;;;;;;;;;;2080492;28;20057;-89
2022/08/21 04:24:20;;;;;;;10.38;4.78;;;;;;;;;;2079718;28;20086;-88
2022/08/21 04:25:23;;;;;;;10.88;5.75;;;;;;;;;;2079760;28;20508;-89
2022/08/21 04:26:23;;;;;;;6.68;4.72;;;;;;;;;;2080582;28;20511;-89
2022/08/21 04:27:24;;;;;;;8.77;5.65;;;;;;;;;;2079998;28;20022;-88
2022/08/21 04:28:27;;;;;;;12.27;5.63;;;;;;;;;;2080073;28;20025;-88
2022/08/21 04:29:28;;;;;;;9.35;5.47;;;;;;;;;;2080661;28;20025;-89
2022/08/21 04:30:29;;;;;;;11.43;5.87;;;;;;;;;;1724105;28;10270475;-88
2022/08/21 04:31:29;;;;;;;10.88;5.75;;;;;;;;;;2079843;28;20025;-89
2022/08/21 04:32:30;;;;;;;9.95;5.68;;;;;;;;;;2071814;28;20030;-89
2022/08/21 04:33:30;;;;;;;13.95;5.63;;;;;;;;;;2079816;28;20045;-89
2022/08/21 04:34:31;;;;;;;9.43;6.03;;;;;;;;;;2079808;28;20044;-89
2022/08/21 04:35:32;;;;;;;7.93;5.55;;;;;;;;;;2096161;28;20020;-89
2022/08/21 04:36:33;;;;;;;9.40;5.40;;;;;;;;;;2087866;28;20404;-90
2022/08/21 04:37:34;;;;;;;8.57;5.57;;;;;;;;;;2079775;28;20022;-89
2022/08/21 04:38:34;;;;;;;14.38;6.20;;;;;;;;;;2080501;28;20033;-88
2022/08/21 04:39:35;;;;;;;9.82;6.20;;;;;;;;;;2080531;28;20029;-89
2022/08/21 04:40:36;;;;;;;9.38;5.85;;;;;;;;;;2080494;28;20029;-89
2022/08/21 04:41:36;;;;;;;10.40;5.75;;;;;;;;;;2079822;28;20017;-90
2022/08/21 04:42:49;;;;;;;14.38;6.53;;;;;;;;;;2079835;28;20069;-89
2022/08/21 04:43:49;;;;;;;9.40;6.32;;;;;;;;;;2079716;28;20033;-89
2022/08/21 04:44:50;;;;;;;8.43;5.95;;;;;;;;;;2079822;28;20105;-89
2022/08/21 04:45:52;;;;;;;12.02;6.10;;;;;;;;;;2079755;28;20478;-90
2022/08/21 04:46:52;;;;;;;11.38;5.97;;;;;;;;;;2071658;28;20021;-89
2022/08/21 04:47:56;;;;;;;16.05;6.82;;;;;;;;;;2079724;28;20017;-89
2022/08/21 04:48:56;;;;;;;8.07;6.18;;;;;;;;;;1724402;28;10259827;-89
2022/08/21 04:49:57;;;;;;;12.43;6.55;;;;;;;;;;2079832;28;20034;-89
2022/08/21 04:51:05;;;;;;;9.55;5.93;;;;;;;;;;2079631;28;20520;-89
2022/08/21 04:52:06;;;;;;;13.27;5.95;;;;;;;;;;2079856;28;20035;-89
2022/08/21 04:53:10;;;;;;;11.88;6.72;;;;;;;;;;2071626;28;20676;-89
2022/08/21 04:54:22;;;;;;;14.57;7.50;;;;;;;;;;2072016;28;20068;-89
2022/08/21 04:55:24;;;;;;;13.45;6.28;;;;;;;;;;2072939;28;20056;-90
2022/08/21 04:56:53;;;;;;;13.00;5.85;;;;;;;;;;2079730;28;20029;-90
2022/08/21 04:57:55;;;;;;;17.88;7.03;;;;;;;;;;2078052;28;20037;-89
2022/08/21 04:58:58;;;;;;;9.38;6.45;;;;;;;;;;2079947;28;20039;-90
2022/08/21 04:59:58;;;;;;;12.30;6.10;;;;;;;;;;2080277;28;20083;-89
2022/08/21 05:01:01;;;;;;;11.52;6.65;;;;;;;;;;2079706;28;20039;-90
2022/08/21 05:02:02;;;;;;;11.25;6.50;;;;;;;;;;2079709;28;20071;-91
2022/08/21 05:03:06;;;;;;;11.07;6.35;;;;;;;;;;2079702;28;20511;-90
2022/08/21 05:04:11;;;;;;;10.43;6.65;;;;;;;;;;2071838;28;20116;-90
2022/08/21 05:05:11;;;;;;;11.70;6.70;;;;;;;;;;1719791;28;10191043;-90
2022/08/21 05:06:13;;;;;;;13.23;6.72;;;;;;;;;;2071602;28;20056;-90
2022/08/21 05:07:22;;;;;;;14.73;8.00;;;;;;;;;;2071801;28;20060;-90
2022/08/21 05:08:25;;;;;;;14.43;6.78;;;;;;;;;;2079726;28;20040;-89
2022/08/21 05:09:26;;;;;;;13.50;6.75;;;;;;;;;;2080338;28;20108;-89
2022/08/21 05:10:27;;;;;;;10.25;6.55;;;;;;;;;;2080220;28;20040;-89
2022/08/21 05:11:30;;;;;;;10.10;5.63;;;;;;;;;;2080308;28;20044;-90
2022/08/21 05:12:31;;;;;;;10.52;6.68;;;;;;;;;;2080394;28;20044;-89
2022/08/21 05:13:32;;;;;;;11.52;6.15;;;;;;;;;;2081004;28;20029;-90
2022/08/21 05:14:32;;;;;;;10.25;6.32;;;;;;;;;;2079804;28;20025;-89
2022/08/21 05:15:43;;;;;;;12.68;6.28;;;;;;;;;;2078959;28;20480;-90
2022/08/21 05:16:44;;;;;;;13.23;7.00;;;;;;;;;;2078757;28;20025;-89
2022/08/21 05:17:44;;;;;;;11.00;6.13;;;;;;;;;;2078318;28;20505;-89
2022/08/21 05:18:44;;;;;;;16.02;6.80;;;;;;;;;;2078417;28;20216;-89
2022/08/21 05:19:45;;;;;;;12.13;6.45;;;;;;;;;;2078482;28;20112;-90
2022/08/21 05:20:45;;;;;;;10.80;5.93;;;;;;;;;;2078545;28;20072;-89
2022/08/21 05:21:49;;;;;;;9.32;5.63;;;;;;;;;;2079284;28;20479;-89
2022/08/21 05:22:50;;;;;;;10.48;6.32;;;;;;;;;;2079021;28;20865;-89
2022/08/21 05:23:51;;;;;;;15.82;6.80;;;;;;;;;;2078198;28;20049;-89
2022/08/21 05:24:52;;;;;;;10.48;6.22;;;;;;;;;;2078377;28;20044;-89
2022/08/21 05:25:53;;;;;;;12.50;6.00;;;;;;;;;;2078535;28;20077;-89
2022/08/21 05:26:54;;;;;;;14.90;6.80;;;;;;;;;;2078561;28;20017;-89
2022/08/21 05:27:54;;;;;;;9.88;6.13;;;;;;;;;;2078733;28;20415;-90
2022/08/21 05:28:54;;;;;;;15.27;6.22;;;;;;;;;;2070236;28;20045;-90
2022/08/21 05:29:56;;;;;;;13.32;6.38;;;;;;;;;;2086959;28;20017;-90
2022/08/21 05:30:57;;;;;;;11.20;6.00;;;;;;;;;;2087655;28;20051;-89
2022/08/21 05:31:57;;;;;;;10.63;6.05;;;;;;;;;;2079182;28;20118;-89
2022/08/21 05:32:59;;;;;;;11.10;5.45;;;;;;;;;;2070502;28;20036;-89
2022/08/21 05:34:00;;;;;;;10.60;6.20;;;;;;;;;;2078855;28;20017;-91
2022/08/21 05:35:01;;;;;;;9.80;5.45;;;;;;;;;;2086947;28;20373;-90
2022/08/21 05:36:01;;;;;;;10.57;5.80;;;;;;;;;;2095814;28;20127;-90
2022/08/21 05:37:02;;;;;;;10.45;5.20;;;;;;;;;;2079518;28;20494;-90
2022/08/21 05:38:04;;;;;;;12.32;5.72;;;;;;;;;;2079721;28;20030;-91
2022/08/21 05:39:04;;;;;;;13.63;6.18;;;;;;;;;;2079244;28;20033;-90
2022/08/21 05:40:07;;;;;;;15.02;6.03;;;;;;;;;;2074255;28;20034;-96
2022/08/21 05:41:07;;;;;;;14.60;5.82;;;;;;;;;;2073306;28;20125;-95
2022/08/21 05:42:08;;;;;;;8.50;6.45;;;;;;;;;;2073071;28;20084;-96
2022/08/21 05:43:08;;;;;;;8.75;5.75;;;;;;;;;;2089553;28;20513;-95
2022/08/21 05:44:09;;;;;;;9.77;5.35;;;;;;;;;;2097600;28;20071;-95
2022/08/21 05:45:10;;;;;;;9.68;4.78;;;;;;;;;;2081070;28;20032;-96
2022/08/21 05:46:11;;;;;;;10.23;5.47;;;;;;;;;;2083694;28;20055;-96
2022/08/21 05:47:32;;;;;;;9.52;5.53;;;;;;;;;;2083206;28;20101;-96
2022/08/21 05:48:33;;;;;;;11.60;4.75;;;;;;;;;;2080844;28;20108;-94
2022/08/21 05:49:34;;;;;;;11.30;5.28;;;;;;;;;;2080950;28;20462;-95
2022/08/21 05:50:37;;;;;;;9.05;5.38;;;;;;;;;;2081808;28;20022;-96
2022/08/21 05:51:40;;;;;;;9.15;4.95;;;;;;;;;;2081997;28;20224;-95
2022/08/21 05:52:41;;;;;;;9.50;5.63;;;;;;;;;;2081231;28;20025;-95
2022/08/21 05:53:42;;;;;;;11.38;5.38;;;;;;;;;;2082161;28;20024;-95
2022/08/21 05:54:43;;;;;;;7.70;5.47;;;;;;;;;;2080711;28;20018;-95
2022/08/21 05:55:43;;;;;;;12.00;5.38;;;;;;;;;;2073083;28;20025;-96
2022/08/21 05:56:44;;;;;;;11.32;5.80;;;;;;;;;;2073092;28;20017;-94
2022/08/21 05:57:44;;;;;;;9.55;4.97;;;;;;;;;;2072975;28;20014;-96
2022/08/21 05:58:45;;;;;;;7.07;4.80;;;;;;;;;;2081335;28;20078;-96
2022/08/21 05:59:45;;;;;;;9.05;5.00;;;;;;;;;;2068006;28;20116;-96
2022/08/21 06:00:47;;;;;;;9.85;4.65;;;;;;;;;;2089522;28;20024;-96
2022/08/21 06:01:48;;;;;;;8.10;4.70;;;;;;;;;;2089154;28;20024;-95
2022/08/21 06:02:50;;;;;;;10.55;4.57;;;;;;;;;;2072710;28;20113;-96
2022/08/21 06:03:50;;;;;;;8.18;4.05;;;;;;;;;;2089465;28;20021;-96
2022/08/21 06:04:51;;;;;;;7.85;3.95;;;;;;;;;;2089203;28;20059;-95
2022/08/21 06:06:04;;;;;;;8.68;4.65;;;;;;;;;;2075292;28;20037;-96
2022/08/21 06:07:50;;;;;;;9.65;4.65;;;;;;;;;;2083205;28;20634;-96
2022/08/21 06:08:52;;;;;;;10.18;4.72;;;;;;;;;;2082101;28;20041;-96